createdAt,value
2023-04-07T05:30:42.203Z,7.00
2023-04-07T05:33:43.870Z,6.70
2023-04-07T05:36:45.949Z,7.00
2023-04-07T05:39:47.604Z,7.20
2023-04-07T05:42:49.658Z,7.20
2023-04-07T05:45:51.429Z,7.20
2023-04-07T05:48:53.130Z,7.60
2023-04-07T05:51:54.791Z,7.70
2023-04-07T05:54:56.948Z,8.70
2023-04-07T05:57:58.835Z,9.40
2023-04-07T06:01:00.521Z,9.40
2023-04-07T06:04:03.475Z,9.40
2023-04-07T06:07:05.835Z,9.80
2023-04-07T06:10:08.287Z,10.10
2023-04-07T06:13:10.045Z,10.70
2023-04-07T06:50:00.094Z,12.10
2023-04-07T06:53:01.772Z,12.80
2023-04-07T06:56:08.348Z,14.90
2023-04-07T06:59:10.577Z,17.10
2023-04-07T07:02:12.535Z,18.30
2023-04-07T07:05:14.369Z,18.00
2023-04-07T07:08:16.034Z,18.70
2023-04-07T07:11:17.743Z,19.20
2023-04-07T07:14:19.582Z,18.50
2023-04-07T07:17:21.246Z,17.40
2023-04-07T07:20:23.597Z,18.70
2023-04-07T07:23:25.251Z,19.20
2023-04-07T07:26:27.338Z,19.80
2023-04-07T07:29:29.498Z,18.50
2023-04-07T07:32:31.660Z,18.30
2023-04-07T07:35:33.465Z,18.30
2023-04-07T07:38:37.071Z,19.10
2023-04-07T07:41:39.405Z,18.40
2023-04-07T07:44:41.072Z,19.70
2023-04-07T07:47:42.796Z,20.30
2023-04-07T07:50:44.771Z,19.00
2023-04-07T07:53:46.904Z,19.40
2023-04-07T07:56:48.743Z,20.00
2023-04-07T07:59:50.401Z,20.40
2023-04-07T08:02:52.509Z,20.20
2023-04-07T08:05:54.493Z,20.50
2023-04-07T08:08:56.261Z,21.40
2023-04-07T08:11:58.287Z,20.50
2023-04-07T08:15:00.424Z,17.90
2023-04-07T08:18:04.463Z,18.00
2023-04-07T08:21:06.723Z,17.80
2023-04-07T08:24:09.800Z,15.60
2023-04-07T08:27:11.708Z,14.10
2023-04-07T08:30:13.480Z,14.10
2023-04-07T08:33:15.552Z,16.00
2023-04-07T08:36:17.288Z,17.00
2023-04-07T08:39:19.589Z,17.70
2023-04-07T08:42:31.652Z,18.20
2023-04-07T08:45:34.487Z,20.20
2023-04-07T08:48:38.356Z,21.10
2023-04-07T08:51:47.355Z,20.30
2023-04-07T08:54:49.918Z,21.50
2023-04-07T08:57:52.333Z,20.40
2023-04-07T09:00:54.422Z,22.70
2023-04-07T09:03:58.193Z,24.20
2023-04-07T09:07:02.135Z,22.90
2023-04-07T09:10:04.585Z,22.50
2023-04-07T09:13:06.633Z,23.70
2023-04-07T09:16:08.367Z,23.50
2023-04-07T09:19:10.442Z,21.20
2023-04-07T09:22:14.309Z,20.10
2023-04-07T09:25:28.075Z,19.40
2023-04-07T09:28:42.149Z,18.50
2023-04-07T09:31:52.066Z,16.80
2023-04-07T09:34:59.745Z,16.90
2023-04-07T09:38:06.704Z,16.20
2023-04-07T09:41:16.709Z,15.40
2023-04-07T09:44:22.433Z,15.50
2023-04-07T09:47:29.268Z,15.20
2023-04-07T09:50:35.827Z,17.40
2023-04-07T09:53:49.461Z,18.00
2023-04-07T09:56:51.453Z,18.80
2023-04-07T09:59:55.534Z,18.50
2023-04-07T10:02:58.145Z,17.60
2023-04-07T10:06:04.431Z,16.90
2023-04-07T10:09:07.444Z,16.70
2023-04-07T10:12:09.208Z,17.00
2023-04-07T10:15:16.310Z,17.20
2023-04-07T10:18:19.504Z,16.70
2023-04-07T10:21:22.712Z,16.90
2023-04-07T10:25:02.090Z,17.60
2023-04-07T10:28:08.219Z,17.80
2023-04-07T10:31:10.728Z,18.10
2023-04-07T10:34:12.626Z,19.80
2023-04-07T10:37:14.937Z,20.60
2023-04-07T10:40:19.424Z,19.10
2023-04-07T10:43:42.190Z,17.50
2023-04-07T10:46:47.189Z,17.60
2023-04-07T10:50:19.047Z,18.70
2023-04-07T10:53:20.712Z,19.10
2023-04-07T10:56:22.402Z,18.60
2023-04-07T10:59:27.696Z,17.70
2023-04-07T11:02:31.459Z,17.20
2023-04-07T11:05:33.229Z,17.90
2023-04-07T11:08:42.774Z,18.30
2023-04-07T11:11:47.561Z,18.70
2023-04-07T11:14:49.275Z,19.40
2023-04-07T11:18:08.190Z,18.20
2023-04-07T11:21:10.140Z,18.40
2023-04-07T11:24:35.130Z,18.30
2023-04-07T11:27:37.094Z,19.30
2023-04-07T11:30:39.802Z,19.40
2023-04-07T11:33:43.665Z,20.30
2023-04-07T11:36:45.339Z,21.70
2023-04-07T11:39:56.159Z,21.60
2023-04-07T11:42:57.962Z,20.60
2023-04-07T11:46:07.695Z,20.10
2023-04-07T11:49:14.015Z,18.50
2023-04-07T11:52:15.818Z,18.30
2023-04-07T11:55:22.468Z,18.30
2023-04-07T11:58:24.365Z,17.40
2023-04-07T12:01:40.774Z,17.10
2023-04-07T12:04:57.469Z,16.20
2023-04-07T12:07:59.172Z,16.10
2023-04-07T12:11:04.752Z,16.60
2023-04-07T12:14:06.770Z,16.50
2023-04-07T12:17:21.666Z,16.70
2023-04-07T12:20:27.427Z,17.00
2023-04-07T12:23:29.206Z,16.90
2023-04-07T12:26:30.972Z,16.20
2023-04-07T12:29:33.867Z,15.80
2023-04-07T12:32:35.947Z,15.70
2023-04-07T12:35:39.080Z,15.00
2023-04-07T12:38:40.990Z,15.40
2023-04-07T12:41:44.094Z,14.80
2023-04-07T12:44:45.803Z,14.50
2023-04-07T12:47:47.607Z,14.50
2023-04-07T12:50:49.760Z,14.70
2023-04-07T12:53:51.475Z,15.00
2023-04-07T12:56:53.156Z,14.60
2023-04-07T12:59:54.786Z,15.00
2023-04-07T13:02:56.745Z,14.80
2023-04-07T13:06:01.324Z,14.70
2023-04-07T13:09:03.038Z,14.60
2023-04-07T13:12:04.679Z,14.30
2023-04-07T13:15:07.537Z,14.90
2023-04-07T13:18:09.249Z,14.70
2023-04-07T13:21:42.856Z,14.80
2023-04-07T13:24:32.922Z,14.50
2023-04-07T13:27:34.681Z,13.80
2023-04-07T13:30:36.480Z,13.60
2023-04-07T13:33:38.141Z,13.10
2023-04-07T13:36:40.539Z,13.00
2023-04-07T13:39:42.355Z,13.20
2023-04-07T13:42:44.001Z,13.00
2023-04-07T13:45:46.905Z,13.20
2023-04-07T13:48:49.518Z,13.20
2023-04-07T13:51:51.316Z,13.10
2023-04-07T13:54:53.233Z,13.10
2023-04-07T13:57:54.985Z,13.00
2023-04-07T14:00:57.129Z,13.40
2023-04-07T14:04:00.833Z,13.80
2023-04-07T14:07:03.590Z,13.50
2023-04-07T14:10:06.433Z,13.30
2023-04-07T14:13:08.910Z,13.40
2023-04-07T14:16:10.578Z,13.70
2023-04-07T14:19:12.388Z,13.80
2023-04-07T14:22:15.054Z,13.80
2023-04-07T14:25:16.737Z,13.80
2023-04-07T14:28:18.380Z,14.10
2023-04-07T14:31:20.048Z,13.80
2023-04-07T14:34:21.894Z,13.90
2023-04-07T14:37:26.413Z,13.80
2023-04-07T14:40:28.252Z,13.60
2023-04-07T14:43:30.515Z,13.60
2023-04-07T14:46:32.204Z,13.60
2023-04-07T14:49:34.793Z,13.80
2023-04-07T14:52:36.711Z,14.30
2023-04-07T14:55:38.334Z,14.60
2023-04-07T14:58:40.874Z,14.40
2023-04-07T15:01:43.231Z,14.30
2023-04-07T15:04:45.156Z,14.50
2023-04-07T15:07:49.841Z,14.50
2023-04-07T15:10:51.767Z,14.60
2023-04-07T15:13:53.517Z,15.00
2023-04-07T15:16:55.564Z,15.00
2023-04-07T15:19:57.217Z,14.80
2023-04-07T15:23:00.827Z,14.70
2023-04-07T15:26:02.497Z,14.50
2023-04-07T15:29:04.406Z,14.30
2023-04-07T15:32:06.186Z,14.20
2023-04-07T15:35:08.258Z,14.00
2023-04-07T15:38:10.318Z,14.20
2023-04-07T15:41:18.664Z,14.40
2023-04-07T15:44:20.337Z,14.30
2023-04-07T15:47:22.092Z,14.10
2023-04-07T15:50:24.956Z,13.70
2023-04-07T15:53:26.909Z,13.20
2023-04-07T15:56:28.556Z,13.40
2023-04-07T15:59:31.167Z,13.30
